Airport View

Enter ICAO identifier to see the current METAR for that AWOS.

KFNL for example

KPIT 230307Z 32008KT 10SM SCT028 07/04 A3018

23 Oct 2014 03:44

Phone: 412-472-0145

Other Area AWOS: KAGC - KBVI - KBTP - KAFJ

TAF AMD KPIT 230303Z 2303/2406 35008KT P6SM BKN020 FM230900 31007KT P6SM BKN025 FM231800 32007KT P6SM SCT035